Time;durP1;ratioP1;P1;durP2;ratioP2;P2;SDS_P1;SDS_P2;PMS_P1;PMS_P2;Temp;Humidity;BMP_temperature;BMP_pressure;BME280_temperature;BME280_humidity;BME280_pressure;Samples;Min_cycle;Max_cycle;Signal;HPM_P1;HPM_P2
2024/03/15 00:00:46;;;;;;;4.17;3.47;;;13.60;92.10;;;;;;5118492;28;20247;-43
2024/03/15 00:03:12;;;;;;;4.20;3.80;;;13.60;99.90;;;;;;5118981;28;20556;-43
2024/03/15 00:05:38;;;;;;;5.17;4.57;;;13.60;99.90;;;;;;5101914;28;20752;-41
2024/03/15 00:08:04;;;;;;;4.10;3.70;;;13.60;99.90;;;;;;5101165;28;20175;-43
2024/03/15 00:10:29;;;;;;;4.23;3.83;;;13.60;99.90;;;;;;5119985;28;20263;-45
2024/03/15 00:12:55;;;;;;;4.37;3.97;;;13.50;99.90;;;;;;5119211;28;20425;-44
2024/03/15 00:15:22;;;;;;;3.57;3.27;;;13.50;99.90;;;;;;5118836;28;20172;-43
2024/03/15 00:17:47;;;;;;;5.00;3.87;;;13.50;99.90;;;;;;5100293;28;20804;-42
2024/03/15 00:20:13;;;;;;;4.03;3.63;;;13.40;99.90;;;;;;5101248;28;20428;-41
2024/03/15 00:22:39;;;;;;;4.20;3.80;;;13.40;99.90;;;;;;5084032;28;20469;-41
2024/03/15 00:25:05;;;;;;;4.13;3.77;;;13.40;99.90;;;;;;5118950;28;20172;-41
2024/03/15 00:27:31;;;;;;;4.13;3.73;;;13.40;99.90;;;;;;5119650;28;20179;-45
2024/03/15 00:29:56;;;;;;;3.63;3.33;;;13.40;1.00;;;;;;5100910;28;20413;-42
2024/03/15 00:32:25;;;;;;;4.77;4.00;;;13.40;1.00;;;;;;5117024;28;20187;-41
2024/03/15 00:34:51;;;;;;;4.20;3.83;;;13.30;1.00;;;;;;5116665;28;20203;-43
2024/03/15 00:37:17;;;;;;;5.33;3.70;;;13.30;1.00;;;;;;5115880;28;20449;-41
2024/03/15 00:39:43;;;;;;;4.33;3.93;;;13.30;1.00;;;;;;5116716;28;20486;-40
2024/03/15 00:42:09;;;;;;;5.00;4.27;;;13.30;1.00;;;;;;5117106;28;20482;-40
2024/03/15 00:44:34;;;;;;;3.63;3.33;;;13.30;1.00;;;;;;5117517;28;20176;-43
2024/03/15 00:47:00;;;;;;;3.90;3.60;;;13.30;1.00;;;;;;5118346;28;20258;-42
2024/03/15 00:49:26;;;;;;;5.00;4.43;;;13.30;1.00;;;;;;5100214;28;20186;-42
2024/03/15 00:51:51;;;;;;;4.57;4.13;;;13.20;22.00;;;;;;5100553;28;20176;-41
2024/03/15 00:54:17;;;;;;;4.67;4.17;;;13.20;49.20;;;;;;5118471;28;20263;-43
2024/03/15 00:56:43;;;;;;;5.57;3.90;;;13.20;35.80;;;;;;5117794;28;20171;-41
2024/03/15 00:59:08;;;;;;;5.50;4.30;;;13.20;77.70;;;;;;5117763;28;20176;-43
2024/03/15 01:01:35;;;;;;;5.03;4.20;;;13.20;99.90;;;;;;5116523;28;20228;-43
2024/03/15 01:04:03;;;;;;;4.07;3.70;;;13.20;99.90;;;;;;5117974;28;20299;-40
2024/03/15 01:06:29;;;;;;;6.10;4.87;;;13.20;99.90;;;;;;5101295;28;20425;-41
2024/03/15 01:08:56;;;;;;;4.60;4.20;;;13.20;99.90;;;;;;5118059;28;20508;-44
2024/03/15 01:11:22;;;;;;;4.20;3.90;;;13.20;99.90;;;;;;5117257;28;20466;-42
2024/03/15 01:13:48;;;;;;;4.23;3.30;;;13.10;99.90;;;;;;5098938;28;20425;-41
2024/03/15 01:16:14;;;;;;;2.60;2.20;;;13.20;99.90;;;;;;5116150;28;20472;-41
2024/03/15 01:18:40;;;;;;;4.80;2.30;;;13.50;1.00;;;;;;5116535;28;20461;-42
2024/03/15 01:21:05;;;;;;;3.10;2.33;;;14.00;13.30;;;;;;5116905;28;20210;-42
2024/03/15 01:23:32;;;;;;;3.43;2.63;;;14.50;1.00;;;;;;5098539;28;20480;-41
2024/03/15 01:25:59;;;;;;;4.97;2.67;;;14.90;99.90;;;;;;5117738;28;20245;-41
2024/03/15 01:28:24;;;;;;;2.50;2.23;;;15.40;1.00;;;;;;5117380;28;20447;-44
2024/03/15 01:30:50;;;;;;;3.20;2.90;;;15.70;1.00;;;;;;5115582;28;20497;-42
2024/03/15 01:33:16;;;;;;;2.73;2.53;;;16.00;1.00;;;;;;5098217;28;20180;-42
2024/03/15 01:35:42;;;;;;;3.63;3.33;;;16.20;99.90;;;;;;5119007;28;20394;-41
2024/03/15 01:38:08;;;;;;;3.03;2.70;;;16.40;99.90;;;;;;5122109;28;20500;-41
2024/03/15 01:40:35;;;;;;;4.93;3.60;;;16.60;99.90;;;;;;5121870;28;20218;-42
2024/03/15 01:43:01;;;;;;;3.90;3.50;;;16.70;1.00;;;;;;5103828;28;20469;-43
2024/03/15 01:45:27;;;;;;;5.20;3.63;;;16.60;99.90;;;;;;5104199;28;20579;-42
2024/03/15 01:47:53;;;;;;;3.87;2.90;;;16.40;1.00;;;;;;5121517;28;20301;-42
2024/03/15 01:50:22;;;;;;;5.17;3.40;;;16.10;1.00;;;;;;5104054;28;20425;-43
2024/03/15 01:52:49;;;;;;;4.80;3.50;;;15.70;1.00;;;;;;5104090;28;20436;-43
2024/03/15 01:55:15;;;;;;;3.57;3.27;;;15.40;1.00;;;;;;5121697;28;20429;-43
2024/03/15 01:57:41;;;;;;;3.53;3.20;;;15.10;1.00;;;;;;5121839;28;20432;-42
2024/03/15 02:00:10;;;;;;;3.53;3.23;;;14.80;1.00;;;;;;5103849;28;20206;-41
2024/03/15 02:02:36;;;;;;;3.60;3.30;;;14.60;23.00;;;;;;5121133;28;20228;-45
2024/03/15 02:05:02;;;;;;;5.20;3.90;;;14.40;99.90;;;;;;5121142;28;20471;-43
2024/03/15 02:07:27;;;;;;;3.40;3.10;;;14.20;99.90;;;;;;5121359;28;20424;-42
2024/03/15 02:09:59;;;;;;;4.30;3.20;;;14.10;99.90;;;;;;5121856;28;20466;-41
2024/03/15 02:12:28;;;;;;;3.50;3.20;;;13.90;1.00;;;;;;5086500;28;20738;-41
2024/03/15 02:14:54;;;;;;;3.97;3.57;;;13.80;1.00;;;;;;5101839;28;20417;-43
2024/03/15 02:17:22;;;;;;;4.17;3.53;;;13.70;1.00;;;;;;5101250;28;20437;-43
2024/03/15 02:19:48;;;;;;;3.20;2.90;;;13.70;1.00;;;;;;5121156;28;20660;-42
2024/03/15 02:22:14;;;;;;;3.90;3.50;;;13.60;96.00;;;;;;5102969;28;20465;-44
2024/03/15 02:24:40;;;;;;;4.13;3.73;;;13.50;99.90;;;;;;5121337;28;20927;-43
2024/03/15 02:27:06;;;;;;;3.83;3.40;;;13.40;99.90;;;;;;5103361;28;20168;-42
2024/03/15 02:29:35;;;;;;;3.70;2.90;;;13.40;99.90;;;;;;5120895;28;20496;-40
2024/03/15 02:32:02;;;;;;;3.60;3.30;;;13.30;99.90;;;;;;5121700;28;20689;-40
2024/03/15 02:34:28;;;;;;;5.33;3.70;;;13.30;1.00;;;;;;5120069;28;20422;-41
2024/03/15 02:36:56;;;;;;;5.30;3.90;;;13.20;1.00;;;;;;5119675;28;20533;-40
2024/03/15 02:39:24;;;;;;;4.40;3.60;;;13.20;1.00;;;;;;5119997;28;20701;-45
2024/03/15 02:41:50;;;;;;;3.63;2.97;;;13.10;1.00;;;;;;5120457;28;20389;-43
2024/03/15 02:44:16;;;;;;;3.40;3.10;;;13.10;1.00;;;;;;5118930;28;20445;-42
2024/03/15 02:46:41;;;;;;;3.90;3.40;;;13.10;1.00;;;;;;5118841;28;20432;-42
2024/03/15 02:49:07;;;;;;;5.27;3.23;;;13.00;1.00;;;;;;5119739;28;20199;-40
2024/03/15 02:51:33;;;;;;;3.97;3.57;;;13.00;1.00;;;;;;5120312;28;20572;-40
2024/03/15 02:53:59;;;;;;;4.03;3.63;;;12.90;1.00;;;;;;5119674;28;20176;-41
2024/03/15 02:56:25;;;;;;;4.80;3.20;;;12.90;8.40;;;;;;5102364;28;20553;-42
2024/03/15 02:58:50;;;;;;;3.80;3.13;;;12.90;31.90;;;;;;5119713;28;20176;-42
2024/03/15 03:01:16;;;;;;;3.90;3.33;;;12.80;99.90;;;;;;5118363;28;20465;-40
2024/03/15 03:03:42;;;;;;;3.80;3.27;;;12.80;99.90;;;;;;5118464;28;20211;-41
2024/03/15 03:06:09;;;;;;;3.50;3.13;;;12.80;99.90;;;;;;5099521;28;20556;-40
2024/03/15 03:08:35;;;;;;;3.50;3.20;;;12.80;99.90;;;;;;5119076;28;20413;-40
2024/03/15 03:11:06;;;;;;;3.80;3.33;;;12.70;99.90;;;;;;5100686;28;20433;-41
2024/03/15 03:13:35;;;;;;;4.13;3.63;;;12.70;99.90;;;;;;5120112;28;20429;-42
2024/03/15 03:16:00;;;;;;;3.70;3.30;;;12.70;99.90;;;;;;5119370;28;20428;-41
2024/03/15 03:18:26;;;;;;;3.00;2.73;;;12.70;99.90;;;;;;5119282;28;20433;-43
2024/03/15 03:20:52;;;;;;;3.70;3.20;;;12.70;99.90;;;;;;5101826;28;20254;-41
2024/03/15 03:23:18;;;;;;;3.87;3.00;;;12.60;99.90;;;;;;5119884;28;20469;-41
2024/03/15 03:25:44;;;;;;;3.57;3.07;;;12.60;99.90;;;;;;5119672;28;20585;-40
2024/03/15 03:28:10;;;;;;;3.73;3.10;;;12.60;99.90;;;;;;5101774;28;20198;-40
2024/03/15 03:30:36;;;;;;;3.77;3.40;;;12.60;99.90;;;;;;5119695;28;20194;-40
2024/03/15 03:33:03;;;;;;;3.73;3.40;;;12.60;99.90;;;;;;5119594;28;20350;-42
2024/03/15 03:35:28;;;;;;;3.37;3.03;;;12.60;99.90;;;;;;5119436;28;20556;-42
2024/03/15 03:37:54;;;;;;;4.73;2.90;;;12.50;99.90;;;;;;5101190;28;20418;-40
2024/03/15 03:40:24;;;;;;;3.30;3.00;;;12.50;99.90;;;;;;5100585;28;20192;-42
2024/03/15 03:42:50;;;;;;;4.00;3.03;;;12.50;99.90;;;;;;5119181;28;20302;-40
2024/03/15 03:45:16;;;;;;;3.37;3.07;;;12.50;99.90;;;;;;5119265;28;20413;-41
2024/03/15 03:47:46;;;;;;;3.10;2.80;;;12.50;99.90;;;;;;5119212;28;20692;-42
2024/03/15 03:50:12;;;;;;;3.23;2.70;;;12.50;99.90;;;;;;5119211;28;20536;-42
2024/03/15 03:52:39;;;;;;;3.50;3.00;;;12.50;99.90;;;;;;5119180;28;20444;-40
2024/03/15 03:55:06;;;;;;;3.60;3.10;;;12.50;48.90;;;;;;5100326;28;20236;-40
2024/03/15 03:57:31;;;;;;;3.00;2.70;;;12.50;1.00;;;;;;5098864;28;20540;-40
2024/03/15 03:59:57;;;;;;;2.67;2.37;;;12.50;1.00;;;;;;5098311;28;20442;-42
2024/03/15 04:02:22;;;;;;;2.93;2.60;;;12.50;1.00;;;;;;5097484;28;20252;-45
2024/03/15 04:04:48;;;;;;;3.07;2.50;;;12.50;1.00;;;;;;5096724;28;20241;-42
2024/03/15 04:07:14;;;;;;;3.03;2.73;;;12.60;1.00;;;;;;5078382;28;20181;-42
2024/03/15 04:09:39;;;;;;;2.87;2.30;;;12.50;99.90;;;;;;5096907;28;20253;-41
2024/03/15 04:12:05;;;;;;;3.80;2.73;;;12.60;99.90;;;;;;5096524;28;20204;-41
2024/03/15 04:14:33;;;;;;;3.13;2.67;;;12.60;99.90;;;;;;5097451;28;20180;-41
2024/03/15 04:16:59;;;;;;;3.10;2.70;;;12.60;99.90;;;;;;5098295;28;20207;-42
2024/03/15 04:19:25;;;;;;;4.13;2.50;;;12.60;99.90;;;;;;5097942;28;20423;-43
2024/03/15 04:21:51;;;;;;;3.33;2.40;;;12.60;99.90;;;;;;5098211;28;20696;-40
2024/03/15 04:24:17;;;;;;;3.83;2.60;;;12.60;58.20;;;;;;5098359;28;20275;-41
2024/03/15 04:26:43;;;;;;;3.90;3.13;;;12.60;21.20;;;;;;5097477;28;20188;-40
2024/03/15 04:29:08;;;;;;;5.20;2.10;;;12.60;1.00;;;;;;5095740;28;20689;-40
2024/03/15 04:31:34;;;;;;;3.73;2.67;;;12.60;1.00;;;;;;5095947;28;20203;-42
2024/03/15 04:34:00;;;;;;;3.00;2.57;;;12.60;1.00;;;;;;5097107;28;20176;-41
2024/03/15 04:36:26;;;;;;;2.70;2.17;;;12.60;1.00;;;;;;5096766;28;20191;-42
2024/03/15 04:38:52;;;;;;;2.30;2.00;;;12.60;1.00;;;;;;5097462;28;20187;-40
2024/03/15 04:41:21;;;;;;;3.63;2.17;;;12.60;1.00;;;;;;5097092;28;20423;-42
2024/03/15 04:43:47;;;;;;;3.90;2.43;;;12.70;1.00;;;;;;5097552;28;20265;-42
2024/03/15 04:46:13;;;;;;;2.87;2.33;;;12.70;1.00;;;;;;5097681;28;20403;-43
2024/03/15 04:48:38;;;;;;;3.00;2.53;;;12.70;1.00;;;;;;5098371;28;20403;-40
2024/03/15 04:51:04;;;;;;;3.03;2.77;;;12.70;1.00;;;;;;5097242;28;20188;-41
2024/03/15 04:53:30;;;;;;;2.53;2.33;;;12.70;1.00;;;;;;5080872;28;20277;-44
2024/03/15 04:55:56;;;;;;;3.30;2.20;;;12.70;1.00;;;;;;5097069;28;20418;-41
2024/03/15 04:58:22;;;;;;;2.87;2.43;;;12.70;1.00;;;;;;5095281;28;20411;-41
2024/03/15 05:00:48;;;;;;;2.70;2.40;;;12.70;1.00;;;;;;5095868;28;20434;-40
2024/03/15 05:03:13;;;;;;;3.37;2.70;;;12.70;1.00;;;;;;5095559;28;20216;-40
2024/03/15 05:05:39;;;;;;;2.90;2.60;;;12.70;1.00;;;;;;5095662;28;20717;-43
2024/03/15 05:08:06;;;;;;;2.50;2.30;;;12.70;1.00;;;;;;5097245;28;20257;-41
2024/03/15 05:10:31;;;;;;;2.50;2.30;;;12.70;1.00;;;;;;5097090;28;20188;-43
2024/03/15 05:12:58;;;;;;;2.80;2.20;;;12.70;1.00;;;;;;5096932;28;20445;-45
2024/03/15 05:15:24;;;;;;;2.83;2.43;;;12.60;1.00;;;;;;5098035;28;20177;-41
2024/03/15 05:17:50;;;;;;;3.10;2.40;;;12.60;1.00;;;;;;5097395;28;20433;-42
2024/03/15 05:20:15;;;;;;;2.60;2.30;;;12.60;1.00;;;;;;5096937;28;20195;-41
2024/03/15 05:22:43;;;;;;;2.30;2.10;;;12.60;1.00;;;;;;5096653;28;20628;-42
2024/03/15 05:25:13;;;;;;;2.50;2.23;;;12.60;1.00;;;;;;5097186;28;20179;-42
2024/03/15 05:27:40;;;;;;;2.33;2.07;;;12.50;1.00;;;;;;5080144;28;20403;-42
2024/03/15 05:30:07;;;;;;;2.40;2.20;;;12.50;1.00;;;;;;5079692;28;20504;-42
2024/03/15 05:32:33;;;;;;;2.47;2.27;;;12.50;1.00;;;;;;5096319;28;20559;-44
2024/03/15 05:35:01;;;;;;;2.87;2.20;;;12.50;1.00;;;;;;5092764;28;20729;-42
2024/03/15 05:37:28;;;;;;;2.10;1.80;;;12.50;99.90;;;;;;5093745;28;20427;-44
2024/03/15 05:39:53;;;;;;;2.77;2.53;;;12.40;1.00;;;;;;5077417;28;20802;-43
2024/03/15 05:42:19;;;;;;;2.80;2.30;;;12.40;99.90;;;;;;5096750;28;20469;-41
2024/03/15 05:44:45;;;;;;;2.40;2.10;;;12.40;99.90;;;;;;5095773;28;20173;-43
2024/03/15 05:47:12;;;;;;;3.40;2.37;;;12.40;99.90;;;;;;5076891;28;20562;-41
2024/03/15 05:49:38;;;;;;;2.87;2.60;;;12.30;99.90;;;;;;5094496;28;20177;-42
2024/03/15 05:52:04;;;;;;;3.60;2.57;;;12.30;99.90;;;;;;5094479;28;20406;-43
2024/03/15 05:54:30;;;;;;;2.80;2.60;;;12.30;99.90;;;;;;5096503;28;20465;-41
2024/03/15 05:56:56;;;;;;;3.20;2.47;;;12.30;99.90;;;;;;5076969;28;20571;-43
2024/03/15 05:59:21;;;;;;;3.33;2.63;;;12.30;99.90;;;;;;5095087;28;20176;-42
2024/03/15 06:01:47;;;;;;;3.57;2.40;;;12.30;99.90;;;;;;5078216;28;20522;-41
2024/03/15 06:04:13;;;;;;;2.67;2.37;;;12.30;99.90;;;;;;5095322;28;20200;-40
2024/03/15 06:06:42;;;;;;;3.00;2.70;;;12.30;99.90;;;;;;5078303;28;20176;-42
2024/03/15 06:09:09;;;;;;;3.10;2.43;;;12.40;99.90;;;;;;5096244;28;20226;-41
2024/03/15 06:11:38;;;;;;;3.13;2.83;;;12.40;99.90;;;;;;5096360;28;20430;-42
2024/03/15 06:14:03;;;;;;;3.03;2.27;;;12.40;99.90;;;;;;5094928;28;20432;-42
2024/03/15 06:16:31;;;;;;;3.60;2.97;;;12.40;99.90;;;;;;5094424;28;20513;-43
2024/03/15 06:18:57;;;;;;;3.20;2.40;;;12.40;99.90;;;;;;5077798;28;20763;-41
2024/03/15 06:21:23;;;;;;;3.63;2.83;;;12.40;99.90;;;;;;5061614;28;20446;-40
2024/03/15 06:23:49;;;;;;;3.30;2.67;;;12.40;99.90;;;;;;5097628;28;20233;-49
2024/03/15 06:26:14;;;;;;;2.80;2.33;;;12.50;99.90;;;;;;5098972;28;20430;-41
2024/03/15 06:28:40;;;;;;;3.17;2.50;;;12.50;99.90;;;;;;5064353;28;20223;-43
2024/03/15 06:31:06;;;;;;;3.30;2.50;;;12.50;99.90;;;;;;5098342;28;20169;-43
2024/03/15 06:33:33;;;;;;;2.77;2.40;;;12.50;99.90;;;;;;5097735;28;20328;-41
2024/03/15 06:36:02;;;;;;;3.10;2.77;;;12.50;99.90;;;;;;5080368;28;20176;-41
2024/03/15 06:38:51;;;;;;;6.60;2.60;;;12.60;99.90;;;;;;5099904;28;20773;-41
2024/03/15 06:43:57;;;;;;;3.00;2.70;;;12.60;99.90;;;;;;5098206;28;20469;-40
2024/03/15 06:46:29;;;;;;;3.87;2.90;;;12.70;99.90;;;;;;5096129;28;20472;-42
2024/03/15 06:48:59;;;;;;;3.53;2.40;;;12.80;90.20;;;;;;5081229;28;21041;-43
2024/03/15 06:54:11;;;;;;;3.73;2.47;;;13.10;3.90;;;;;;5097223;28;20903;-43
2024/03/15 06:56:37;;;;;;;4.20;2.53;;;13.30;1.00;;;;;;5079326;28;20459;-41
2024/03/15 06:59:03;;;;;;;3.10;2.53;;;13.50;1.00;;;;;;5096047;28;20430;-42
2024/03/15 07:01:30;;;;;;;2.23;2.03;;;13.70;1.00;;;;;;5097393;28;20873;-42
2024/03/15 07:03:57;;;;;;;2.90;2.60;;;13.80;1.00;;;;;;5099401;28;20887;-41
2024/03/15 07:06:22;;;;;;;2.93;2.63;;;14.00;1.00;;;;;;5098437;28;20430;-46
2024/03/15 07:08:49;;;;;;;2.30;2.10;;;14.20;1.00;;;;;;5097991;28;20445;-42
2024/03/15 07:11:15;;;;;;;2.53;2.30;;;14.50;99.90;;;;;;5080867;28;20215;-43
2024/03/15 07:13:41;;;;;;;3.20;2.57;;;14.80;99.90;;;;;;5098523;28;20431;-43
2024/03/15 07:16:11;;;;;;;3.23;2.60;;;15.00;99.90;;;;;;5095565;28;20406;-41
2024/03/15 07:18:37;;;;;;;3.10;2.50;;;15.30;99.90;;;;;;5096085;28;20396;-40
2024/03/15 07:21:03;;;;;;;3.50;2.30;;;15.60;99.90;;;;;;5080603;28;20545;-41
2024/03/15 07:23:31;;;;;;;5.80;2.60;;;15.80;99.90;;;;;;5081138;28;20756;-42
2024/03/15 07:25:57;;;;;;;3.43;2.73;;;16.00;99.90;;;;;;5098848;28;20821;-41
2024/03/15 07:28:23;;;;;;;2.77;2.47;;;16.20;99.90;;;;;;5098951;28;20739;-42
2024/03/15 07:30:49;;;;;;;3.80;3.00;;;16.40;99.90;;;;;;5097021;28;20468;-42
2024/03/15 07:33:17;;;;;;;2.60;2.40;;;16.60;99.90;;;;;;5096483;28;20503;-42
2024/03/15 07:35:45;;;;;;;3.10;2.10;;;16.80;87.60;;;;;;5078907;28;20450;-41
2024/03/15 07:38:11;;;;;;;2.83;2.60;;;16.90;57.90;;;;;;5077662;28;20430;-43
2024/03/15 07:40:37;;;;;;;2.90;2.60;;;16.90;45.70;;;;;;5077345;28;20431;-43
2024/03/15 07:43:02;;;;;;;4.13;2.50;;;17.00;40.60;;;;;;5096137;28;20917;-42
2024/03/15 07:45:28;;;;;;;2.93;1.93;;;17.20;34.50;;;;;;5097263;28;20642;-40
2024/03/15 07:47:54;;;;;;;8.70;2.20;;;17.40;99.90;;;;;;5095398;28;20423;-44
2024/03/15 07:50:19;;;;;;;4.00;1.77;;;18.50;99.90;;;;;;5076897;28;20225;-44
2024/03/15 07:52:45;;;;;;;2.33;1.57;;;19.10;99.90;;;;;;5094201;28;20320;-44
2024/03/15 07:55:10;;;;;;;2.20;1.60;;;19.80;99.90;;;;;;5094382;28;20246;-47
2024/03/15 07:57:36;;;;;;;3.83;3.03;;;20.40;1.00;;;;;;5095102;28;20207;-44
2024/03/15 08:00:05;;;;;;;3.80;2.20;;;20.90;99.90;;;;;;5096420;28;20264;-43
2024/03/15 08:02:30;;;;;;;5.40;1.70;;;21.40;99.90;;;;;;5096057;28;20204;-43
2024/03/15 08:04:56;;;;;;;4.00;1.97;;;21.70;99.90;;;;;;5096936;28;20514;-46
2024/03/15 08:07:21;;;;;;;2.30;2.10;;;22.00;99.90;;;;;;5095594;28;20653;-44
2024/03/15 08:09:47;;;;;;;3.30;1.83;;;22.20;65.80;;;;;;5095329;28;20173;-45
2024/03/15 08:12:19;;;;;;;4.53;2.50;;;22.40;55.10;;;;;;5096259;28;20184;-46
2024/03/15 08:14:44;;;;;;;4.03;2.37;;;22.60;19.30;;;;;;5095482;28;20702;-43
2024/03/15 08:17:10;;;;;;;3.80;2.53;;;22.70;6.50;;;;;;5094564;28;20517;-44
2024/03/15 08:19:36;;;;;;;3.07;1.90;;;22.90;1.00;;;;;;5077647;28;20180;-44
2024/03/15 08:22:01;;;;;;;3.23;2.00;;;23.00;1.00;;;;;;5095554;28;20454;-44
2024/03/15 08:24:28;;;;;;;1.90;1.70;;;23.10;1.00;;;;;;5095512;28;20634;-44
2024/03/15 08:26:54;;;;;;;3.60;1.60;;;23.20;1.00;;;;;;5096341;28;20195;-43
2024/03/15 08:29:22;;;;;;;3.30;1.90;;;23.30;1.00;;;;;;5096036;28;20426;-46
2024/03/15 08:31:48;;;;;;;3.53;2.43;;;23.50;1.00;;;;;;5095927;28;20491;-45
2024/03/15 08:34:14;;;;;;;2.27;1.80;;;23.60;1.00;;;;;;5076911;28;20417;-44
2024/03/15 08:36:40;;;;;;;2.33;2.00;;;23.80;1.00;;;;;;5094813;28;20407;-48
2024/03/15 08:39:13;;;;;;;6.10;2.30;;;24.10;1.00;;;;;;5077312;28;20466;-45
2024/03/15 08:41:42;;;;;;;2.30;1.80;;;24.30;1.00;;;;;;5093988;28;20401;-43
2024/03/15 08:44:11;;;;;;;2.40;1.87;;;24.50;1.00;;;;;;5095141;28;20475;-42
2024/03/15 08:46:36;;;;;;;2.97;2.10;;;24.80;1.00;;;;;;5096402;28;20518;-46
2024/03/15 08:49:02;;;;;;;4.93;2.30;;;25.00;1.00;;;;;;5095155;28;20487;-47
2024/03/15 08:51:28;;;;;;;7.97;2.17;;;25.20;1.00;;;;;;5096117;28;20304;-47
2024/03/15 08:53:53;;;;;;;4.00;2.07;;;25.30;1.00;;;;;;5095043;28;20289;-46
2024/03/15 08:56:19;;;;;;;5.60;2.47;;;25.50;1.00;;;;;;5094439;28;20191;-46
2024/03/15 08:58:46;;;;;;;3.00;2.57;;;25.70;1.00;;;;;;5095346;28;20470;-46
2024/03/15 09:01:12;;;;;;;5.83;2.30;;;25.90;1.00;;;;;;5078044;28;20228;-44
2024/03/15 09:03:39;;;;;;;3.53;1.80;;;26.10;1.00;;;;;;5078430;28;20560;-47
2024/03/15 09:06:19;;;;;;;12.70;2.30;;;26.20;1.00;;;;;;5095543;28;20192;-48
2024/03/15 09:08:54;;;;;;;3.70;2.80;;;26.50;1.00;;;;;;5097041;28;20796;-42
2024/03/15 09:11:20;;;;;;;3.23;2.43;;;26.70;1.00;;;;;;5097025;28;20176;-42
2024/03/15 09:13:46;;;;;;;2.77;2.47;;;26.90;1.00;;;;;;5096295;28;20459;-43
2024/03/15 09:16:13;;;;;;;4.20;3.17;;;27.00;1.00;;;;;;5077389;28;20450;-43
2024/03/15 09:18:39;;;;;;;6.37;2.90;;;27.20;1.00;;;;;;5097143;28;20184;-43
2024/03/15 09:21:06;;;;;;;2.40;2.00;;;27.30;1.00;;;;;;5097395;28;20430;-42
2024/03/15 09:23:32;;;;;;;2.83;2.00;;;27.40;1.00;;;;;;5097546;28;20304;-43
2024/03/15 09:25:58;;;;;;;3.97;2.20;;;27.70;1.00;;;;;;5079797;28;20434;-44
2024/03/15 09:28:26;;;;;;;3.07;2.00;;;27.90;1.00;;;;;;5097414;28;20449;-45
2024/03/15 09:30:54;;;;;;;3.07;2.23;;;28.20;1.00;;;;;;5079263;28;20453;-42
2024/03/15 09:33:27;;;;;;;3.77;2.67;;;28.30;1.00;;;;;;5096230;28;20415;-42
2024/03/15 09:35:53;;;;;;;3.60;2.03;;;28.50;1.00;;;;;;5079638;28;20510;-43
2024/03/15 09:38:19;;;;;;;5.30;2.17;;;28.60;1.00;;;;;;5096946;28;20438;-42
2024/03/15 09:40:45;;;;;;;2.30;1.90;;;28.80;1.00;;;;;;5092371;28;20703;-43
2024/03/15 09:43:17;;;;;;;2.53;2.33;;;29.10;1.00;;;;;;5096141;28;20531;-43
2024/03/15 09:45:43;;;;;;;3.23;2.00;;;29.10;1.00;;;;;;5078982;28;20430;-43
2024/03/15 09:48:12;;;;;;;2.00;1.80;;;29.20;1.00;;;;;;5095781;28;20454;-43
2024/03/15 09:50:41;;;;;;;2.13;1.67;;;29.60;1.00;;;;;;5096318;28;20217;-42
2024/03/15 09:53:09;;;;;;;2.67;1.93;;;29.90;1.00;;;;;;5078715;28;20454;-45
2024/03/15 09:55:35;;;;;;;2.03;1.73;;;30.10;1.00;;;;;;5097798;28;20423;-44
2024/03/15 09:58:04;;;;;;;3.80;2.10;;;30.30;1.00;;;;;;5082506;28;20414;-44
2024/03/15 10:00:30;;;;;;;5.03;2.13;;;30.40;1.00;;;;;;5100414;28;20240;-44
2024/03/15 10:02:56;;;;;;;3.03;1.50;;;29.90;1.00;;;;;;5099875;28;20448;-42
2024/03/15 10:05:22;;;;;;;4.50;1.77;;;29.10;1.00;;;;;;5082318;28;20755;-43
2024/03/15 10:07:49;;;;;;;2.90;1.80;;;28.40;1.00;;;;;;5100538;28;20406;-43
2024/03/15 10:10:16;;;;;;;3.03;2.03;;;27.60;1.00;;;;;;5082829;28;20393;-41
2024/03/15 10:12:45;;;;;;;3.87;1.90;;;26.80;1.00;;;;;;5100815;28;20500;-41
2024/03/15 10:15:12;;;;;;;2.90;1.90;;;26.20;1.00;;;;;;5097054;28;20427;-42
2024/03/15 10:17:43;;;;;;;2.60;1.77;;;25.70;1.00;;;;;;5061896;28;20454;-48
2024/03/15 10:20:22;;;;;;;2.50;1.40;;;25.20;1.00;;;;;;5079961;28;20473;-41
2024/03/15 10:22:53;;;;;;;3.57;2.00;;;24.90;1.00;;;;;;5079125;28;20441;-42
2024/03/15 10:25:24;;;;;;;12.10;3.73;;;24.60;1.00;;;;;;5078284;28;20408;-42
2024/03/15 10:27:50;;;;;;;8.47;3.00;;;24.20;1.00;;;;;;5079094;28;20423;-44
2024/03/15 10:30:24;;;;;;;9.83;1.80;;;23.80;1.00;;;;;;5079641;28;20434;-42
2024/03/15 10:32:51;;;;;;;2.57;1.63;;;23.30;1.00;;;;;;5061643;28;20492;-43
2024/03/15 10:35:22;;;;;;;2.80;1.90;;;22.80;1.00;;;;;;5079530;28;20427;-42
2024/03/15 10:37:49;;;;;;;4.63;1.63;;;22.40;1.00;;;;;;5077941;28;20427;-42
2024/03/15 10:40:15;;;;;;;2.93;1.60;;;21.90;1.00;;;;;;5077651;28;20385;-41
2024/03/15 10:42:42;;;;;;;3.20;2.00;;;21.50;1.00;;;;;;5077796;28;21047;-43
2024/03/15 10:45:12;;;;;;;4.50;1.97;;;21.30;1.00;;;;;;5077908;28;20477;-41
2024/03/15 10:47:39;;;;;;;2.50;1.70;;;21.00;1.00;;;;;;5078038;28;20438;-41
2024/03/15 10:50:11;;;;;;;2.63;2.20;;;20.80;1.00;;;;;;5077736;28;20419;-42
2024/03/15 10:52:45;;;;;;;6.90;2.03;;;20.50;1.00;;;;;;5078670;28;20457;-42
2024/03/15 10:55:15;;;;;;;2.40;1.50;;;20.50;1.00;;;;;;5078362;28;20471;-43
2024/03/15 10:57:40;;;;;;;2.93;1.57;;;20.40;1.00;;;;;;5078925;28;20416;-42
2024/03/15 11:00:14;;;;;;;7.00;2.10;;;20.40;1.00;;;;;;5078892;28;20438;-41
2024/03/15 11:02:50;;;;;;;2.83;1.90;;;20.50;1.00;;;;;;5079196;28;20223;-42
2024/03/15 11:05:24;;;;;;;3.73;2.17;;;20.70;1.00;;;;;;5078488;28;20468;-42
2024/03/15 11:08:02;;;;;;;3.63;2.10;;;21.10;1.00;;;;;;5076871;28;20855;-42
2024/03/15 11:10:28;;;;;;;2.90;1.97;;;21.60;1.00;;;;;;5076517;28;20502;-41
2024/03/15 11:12:57;;;;;;;3.30;2.13;;;22.00;1.00;;;;;;5078432;28;20542;-43
2024/03/15 11:15:23;;;;;;;2.00;1.60;;;22.50;1.00;;;;;;5060223;28;20419;-41
2024/03/15 11:17:58;;;;;;;3.23;2.17;;;22.90;1.00;;;;;;5077053;28;20450;-42
2024/03/15 11:20:24;;;;;;;2.63;1.53;;;23.30;1.00;;;;;;5077171;28;20462;-43
2024/03/15 11:22:56;;;;;;;2.50;2.20;;;23.50;1.00;;;;;;5077698;28;20748;-41
2024/03/15 11:25:21;;;;;;;3.73;2.10;;;24.10;1.00;;;;;;5077469;28;20581;-42
2024/03/15 11:27:58;;;;;;;2.80;1.70;;;24.50;1.00;;;;;;5059482;28;20514;-42
2024/03/15 11:30:27;;;;;;;2.40;1.70;;;24.80;1.00;;;;;;5077771;28;20177;-45
2024/03/15 11:32:54;;;;;;;2.70;2.13;;;25.30;1.00;;;;;;5077935;28;20423;-39
2024/03/15 11:35:22;;;;;;;3.40;1.50;;;25.80;1.00;;;;;;5076420;28;20423;-42
2024/03/15 11:37:55;;;;;;;3.07;1.97;;;26.60;1.00;;;;;;5077029;28;20522;-43
2024/03/15 11:40:26;;;;;;;2.37;1.87;;;27.30;1.00;;;;;;5060786;28;20411;-42
2024/03/15 11:42:52;;;;;;;2.80;1.83;;;27.30;1.00;;;;;;5059953;28;20478;-41
2024/03/15 11:45:18;;;;;;;1.97;1.73;;;27.20;1.00;;;;;;5078692;28;20434;-42
2024/03/15 11:47:44;;;;;;;3.83;2.10;;;26.90;1.00;;;;;;5077368;28;20846;-41
2024/03/15 11:50:16;;;;;;;3.50;2.10;;;26.60;1.00;;;;;;5077393;28;20254;-42
2024/03/15 11:52:43;;;;;;;1.90;1.70;;;26.30;1.00;;;;;;5077374;28;20525;-43
2024/03/15 11:55:17;;;;;;;2.70;2.10;;;26.00;1.00;;;;;;5058912;28;21049;-43
2024/03/15 11:57:43;;;;;;;3.43;1.83;;;25.90;1.00;;;;;;5076605;28;20443;-42
2024/03/15 12:00:20;;;;;;;2.73;1.60;;;25.90;1.00;;;;;;5076888;28;20444;-40
2024/03/15 12:02:49;;;;;;;2.83;1.47;;;25.80;1.00;;;;;;5076838;28;20273;-43
2024/03/15 12:05:15;;;;;;;2.53;1.70;;;25.60;1.00;;;;;;5078060;28;20419;-43
2024/03/15 12:07:43;;;;;;;3.10;2.00;;;25.40;1.00;;;;;;5076425;28;20430;-40
2024/03/15 12:10:11;;;;;;;1.90;1.40;;;25.30;1.00;;;;;;5076986;28;20410;-40
2024/03/15 12:12:37;;;;;;;2.80;1.70;;;25.40;1.00;;;;;;5076867;28;20868;-40
2024/03/15 12:15:05;;;;;;;2.10;1.83;;;25.50;1.00;;;;;;5077304;28;20405;-42
2024/03/15 12:17:31;;;;;;;3.20;1.93;;;25.60;1.00;;;;;;5080338;28;20431;-44
2024/03/15 12:19:58;;;;;;;2.00;1.60;;;25.50;1.00;;;;;;5076729;28;20575;-40
2024/03/15 12:22:24;;;;;;;2.20;1.80;;;25.20;1.00;;;;;;5094299;28;20260;-42
2024/03/15 12:24:51;;;;;;;1.57;1.33;;;25.00;1.00;;;;;;5096013;28;20406;-42
2024/03/15 12:27:17;;;;;;;3.13;1.87;;;24.70;1.00;;;;;;5094829;28;20834;-43
2024/03/15 12:29:43;;;;;;;1.90;1.43;;;24.60;1.00;;;;;;5085150;28;20458;-42
2024/03/15 12:32:08;;;;;;;2.03;1.50;;;24.50;1.00;;;;;;5057834;28;20276;-42
2024/03/15 12:34:34;;;;;;;2.17;1.57;;;24.20;1.00;;;;;;5077613;28;20544;-42
2024/03/15 12:37:00;;;;;;;2.23;1.63;;;24.00;1.00;;;;;;5076739;28;20169;-41
2024/03/15 12:39:25;;;;;;;4.40;1.40;;;23.70;1.00;;;;;;5075242;28;20177;-44
2024/03/15 12:41:55;;;;;;;1.83;1.63;;;23.50;1.00;;;;;;5075311;28;20575;-42
2024/03/15 12:44:21;;;;;;;1.70;1.60;;;23.40;1.00;;;;;;5057902;28;20209;-40
2024/03/15 12:46:49;;;;;;;2.43;1.87;;;23.20;1.00;;;;;;5087426;28;20491;-47
2024/03/15 12:49:15;;;;;;;2.50;1.83;;;23.00;1.00;;;;;;5094423;28;20826;-41
2024/03/15 12:51:41;;;;;;;2.87;1.83;;;22.90;1.00;;;;;;5078834;28;20422;-42
2024/03/15 12:54:07;;;;;;;1.93;1.40;;;22.80;1.00;;;;;;5060578;28;20220;-41
2024/03/15 12:56:33;;;;;;;3.40;1.83;;;22.80;1.00;;;;;;5095544;28;20267;-44